Time;durP1;ratioP1;P1;durP2;ratioP2;P2;SDS_P1;SDS_P2;PMS_P1;PMS_P2;Temp;Humidity;BMP_temperature;BMP_pressure;BME280_temperature;BME280_humidity;BME280_pressure;Samples;Min_cycle;Max_cycle;Signal;HPM_P1;HPM_P2
2023/05/15 00:01:23;;;;;;;20.38;13.95;;;;;;;21.40;51.51;101697.97;5020433;28;20085;-35
2023/05/15 00:03:50;;;;;;;21.67;14.80;;;;;;;21.39;51.56;101706.22;5016154;28;20100;-36
2023/05/15 00:06:18;;;;;;;20.13;13.88;;;;;;;21.38;51.67;101697.25;5023974;28;20072;-34
2023/05/15 00:08:45;;;;;;;19.35;13.10;;;;;;;21.37;51.75;101702.81;5020304;28;20057;-34
2023/05/15 00:11:11;;;;;;;20.38;13.27;;;;;;;21.37;51.79;101710.91;5023049;28;20046;-34
2023/05/15 00:13:38;;;;;;;21.38;13.88;;;;;;;21.35;51.49;101692.19;5024227;28;20077;-34
2023/05/15 00:16:06;;;;;;;21.55;14.20;;;;;;;21.34;51.53;101692.31;5020661;28;20196;-34
2023/05/15 00:18:33;;;;;;;19.38;13.05;;;;;;;21.33;51.66;101699.56;5021162;28;20045;-35
2023/05/15 00:20:59;;;;;;;20.80;13.30;;;;;;;21.32;51.60;101695.19;5022919;28;20046;-34
2023/05/15 00:23:26;;;;;;;22.98;13.98;;;;;;;21.30;51.54;101694.44;5023164;28;20053;-35
2023/05/15 00:25:52;;;;;;;20.05;13.00;;;;;;;21.30;51.89;101696.31;5022192;28;20056;-35
2023/05/15 00:28:19;;;;;;;20.40;13.27;;;;;;;21.28;51.96;101691.06;5021437;28;20430;-35
2023/05/15 00:30:46;;;;;;;19.25;13.57;;;;;;;21.26;51.88;101676.88;5023850;28;20179;-34
2023/05/15 00:33:12;;;;;;;17.88;12.85;;;;;;;21.25;51.92;101680.59;5023765;28;20052;-35
2023/05/15 00:35:39;;;;;;;21.67;13.55;;;;;;;21.23;52.06;101681.75;5026136;28;20076;-35
2023/05/15 00:38:06;;;;;;;18.98;12.85;;;;;;;21.23;51.88;101676.34;5021008;28;20444;-35
2023/05/15 00:40:34;;;;;;;18.95;12.15;;;;;;;21.19;52.08;101670.44;5019430;28;20137;-35
2023/05/15 00:43:02;;;;;;;18.58;12.20;;;;;;;21.18;51.94;101672.25;5022015;28;20060;-35
2023/05/15 00:45:29;;;;;;;18.02;12.13;;;;;;;21.17;52.21;101675.97;5030112;28;20049;-34
2023/05/15 00:47:57;;;;;;;18.08;12.00;;;;;;;21.16;51.80;101655.41;5023050;28;20057;-34
2023/05/15 00:50:24;;;;;;;17.02;12.02;;;;;;;21.15;51.88;101651.03;5024099;28;20064;-35
2023/05/15 00:52:52;;;;;;;18.98;12.55;;;;;;;21.14;51.95;101649.31;5022225;28;20433;-34
2023/05/15 00:55:18;;;;;;;19.02;12.85;;;;;;;21.12;52.19;101659.41;5027221;28;20056;-35
2023/05/15 00:57:46;;;;;;;19.30;12.38;;;;;;;21.12;52.11;101651.34;5026066;28;20635;-35
2023/05/15 01:00:15;;;;;;;16.67;11.73;;;;;;;21.11;52.09;101643.41;5023333;28;20465;-34
2023/05/15 01:02:43;;;;;;;17.52;11.93;;;;;;;21.10;52.34;101641.69;5025330;28;20140;-35
2023/05/15 01:05:09;;;;;;;18.33;12.40;;;;;;;21.09;52.14;101642.72;5020404;28;20061;-35
2023/05/15 01:07:44;;;;;;;18.05;11.90;;;;;;;21.08;52.36;101654.50;5021635;28;20067;-34
2023/05/15 01:10:10;;;;;;;16.98;11.95;;;;;;;21.06;52.11;101657.31;5025496;28;20161;-34
2023/05/15 01:12:40;;;;;;;16.48;11.48;;;;;;;21.05;52.36;101650.25;5019107;28;20053;-35
2023/05/15 01:15:07;;;;;;;14.93;10.55;;;;;;;21.04;52.20;101656.66;5022420;28;20088;-34
2023/05/15 01:17:33;;;;;;;16.92;11.52;;;;;;;21.03;52.47;101660.34;5019277;28;20141;-34
2023/05/15 01:20:05;;;;;;;16.92;11.45;;;;;;;21.02;52.69;101655.94;5022557;28;20041;-35
2023/05/15 01:22:31;;;;;;;17.10;11.18;;;;;;;21.02;52.04;101655.94;5020874;28;20091;-35
2023/05/15 01:25:07;;;;;;;16.67;11.02;;;;;;;21.00;52.16;101649.88;5021943;28;21131;-35
2023/05/15 01:27:55;;;;;;;15.27;10.52;;;;;;;20.99;52.48;101647.34;5018510;28;20055;-35
2023/05/15 01:30:31;;;;;;;16.10;10.68;;;;;;;20.99;52.29;101650.88;5020402;28;20614;-34
2023/05/15 01:33:05;;;;;;;15.15;10.52;;;;;;;20.97;52.33;101650.16;5022171;28;20053;-35
2023/05/15 01:35:38;;;;;;;16.23;10.98;;;;;;;20.97;52.74;101652.03;5024756;28;20055;-35
2023/05/15 01:38:33;;;;;;;15.80;10.48;;;;;;;20.94;52.33;101659.44;5026269;28;20050;-34
2023/05/15 01:41:22;;;;;;;14.18;10.05;;;;;;;20.92;52.67;101658.72;5028170;28;20049;-34
2023/05/15 01:44:08;;;;;;;17.90;11.50;;;;;;;20.94;52.41;101647.78;5023504;28;20058;-35
2023/05/15 01:46:38;;;;;;;13.82;9.57;;;;;;;20.92;52.61;101649.78;5024472;28;20341;-37
2023/05/15 01:49:09;;;;;;;16.50;9.95;;;;;;;20.91;52.61;101654.34;5025543;28;20054;-34
2023/05/15 01:51:37;;;;;;;14.60;10.10;;;;;;;20.90;52.52;101649.06;5027537;28;20049;-34
2023/05/15 01:54:07;;;;;;;15.30;10.57;;;;;;;20.88;52.38;101653.78;5023979;28;20046;-34
2023/05/15 01:56:35;;;;;;;14.48;10.20;;;;;;;20.87;52.89;101660.19;5023305;28;20076;-33
2023/05/15 01:59:04;;;;;;;13.38;9.93;;;;;;;20.87;52.41;101654.81;5024550;28;20049;-34
2023/05/15 02:01:32;;;;;;;15.25;11.02;;;;;;;20.85;52.66;101654.94;5026566;28;20045;-36
2023/05/15 02:04:02;;;;;;;13.57;9.82;;;;;;;20.84;52.65;101655.09;5023748;28;20049;-34
2023/05/15 02:06:32;;;;;;;13.73;9.68;;;;;;;20.83;52.76;101651.56;5027291;28;20045;-34
2023/05/15 02:09:01;;;;;;;12.95;9.55;;;;;;;20.82;52.81;101649.00;5025717;28;20155;-34
2023/05/15 02:11:28;;;;;;;13.65;9.27;;;;;;;20.82;52.81;101649.00;5022943;28;20054;-34
2023/05/15 02:13:56;;;;;;;14.13;9.52;;;;;;;20.82;53.18;101660.63;5023605;28;20148;-34
2023/05/15 02:16:22;;;;;;;12.77;8.93;;;;;;;20.80;52.79;101649.16;5026834;28;20045;-34
2023/05/15 02:18:51;;;;;;;12.52;9.07;;;;;;;20.79;52.79;101644.78;5021449;28;20338;-34
2023/05/15 02:21:18;;;;;;;13.30;8.90;;;;;;;20.79;53.17;101644.78;5023355;28;20704;-34
2023/05/15 02:23:44;;;;;;;12.52;8.52;;;;;;;20.79;53.09;101638.56;5022945;28;20045;-33
2023/05/15 02:26:36;;;;;;;12.77;8.52;;;;;;;20.77;52.70;101635.16;5022057;28;20053;-35
2023/05/15 02:29:21;;;;;;;11.98;8.93;;;;;;;20.77;53.25;101638.69;5022753;28;20469;-34
2023/05/15 02:31:54;;;;;;;11.85;8.35;;;;;;;20.76;53.24;101637.00;5023685;28;20144;-34
2023/05/15 02:34:23;;;;;;;13.43;9.05;;;;;;;20.76;53.00;101644.22;5029376;28;20062;-34
2023/05/15 02:36:52;;;;;;;11.93;8.45;;;;;;;20.75;52.69;101640.69;5025748;28;20060;-34
2023/05/15 02:39:22;;;;;;;13.25;8.38;;;;;;;20.74;52.87;101644.38;5027600;28;20056;-34
2023/05/15 02:41:49;;;;;;;12.00;8.27;;;;;;;20.74;52.98;101640.84;5030401;28;20377;-34
2023/05/15 02:44:17;;;;;;;12.82;8.75;;;;;;;20.73;53.16;101644.53;5028635;28;20050;-34
2023/05/15 02:46:46;;;;;;;11.82;8.25;;;;;;;20.72;52.72;101641.00;5026246;28;20443;-35
2023/05/15 02:49:13;;;;;;;10.95;8.07;;;;;;;20.71;53.13;101636.63;5027803;28;20448;-34
2023/05/15 02:51:41;;;;;;;12.40;8.07;;;;;;;20.69;52.75;101639.44;5024090;28;20049;-34
2023/05/15 02:54:08;;;;;;;11.27;8.07;;;;;;;20.70;52.92;101635.78;5024899;28;20057;-34
2023/05/15 02:56:35;;;;;;;9.55;7.40;;;;;;;20.70;53.17;101637.59;5025574;28;20384;-34
2023/05/15 02:59:01;;;;;;;12.13;8.20;;;;;;;20.68;52.66;101632.38;5024172;28;20056;-34
2023/05/15 03:01:28;;;;;;;10.40;7.60;;;;;;;20.67;53.21;101636.06;5026856;28;20085;-34
2023/05/15 03:03:55;;;;;;;11.38;7.78;;;;;;;20.67;53.32;101636.06;5020136;28;20077;-34
2023/05/15 03:06:22;;;;;;;12.07;7.55;;;;;;;20.66;53.24;101630.81;5019469;28;20349;-34
2023/05/15 03:08:49;;;;;;;11.75;8.18;;;;;;;20.66;53.46;101628.13;5025496;28;20132;-34
2023/05/15 03:11:18;;;;;;;10.10;7.43;;;;;;;20.66;53.00;101629.00;5024553;28;20133;-34
2023/05/15 03:13:44;;;;;;;10.93;8.00;;;;;;;20.65;53.15;101629.97;5025162;28;20396;-34
2023/05/15 03:16:11;;;;;;;9.45;7.07;;;;;;;20.65;53.47;101621.03;5022916;28;20140;-34
2023/05/15 03:18:37;;;;;;;11.25;8.30;;;;;;;20.64;52.88;101622.91;5023667;28;20061;-34
2023/05/15 03:21:04;;;;;;;10.45;7.20;;;;;;;20.63;53.03;101618.50;5026554;28;20069;-34
2023/05/15 03:23:31;;;;;;;8.88;6.43;;;;;;;20.63;53.53;101614.97;5025192;28;20046;-34
2023/05/15 03:25:57;;;;;;;11.02;7.40;;;;;;;20.61;53.42;101612.41;5021789;28;20053;-34
2023/05/15 03:28:24;;;;;;;10.05;6.88;;;;;;;20.62;53.11;101605.19;5025670;28;20144;-34
2023/05/15 03:30:51;;;;;;;8.90;6.65;;;;;;;20.61;53.07;101606.19;5026567;28;20127;-35
2023/05/15 03:33:17;;;;;;;10.23;6.75;;;;;;;20.61;53.29;101619.66;5023637;28;20140;-34
2023/05/15 03:35:44;;;;;;;10.43;6.82;;;;;;;20.61;53.02;101625.88;5023833;28;20076;-34
2023/05/15 03:38:11;;;;;;;10.40;6.90;;;;;;;20.60;53.21;101621.50;5022027;28;20132;-34
2023/05/15 03:40:38;;;;;;;8.95;6.28;;;;;;;20.60;52.96;101618.81;5024906;28;20326;-33
2023/05/15 03:43:05;;;;;;;8.95;6.40;;;;;;;20.60;53.28;101618.81;5023913;28;20049;-34
2023/05/15 03:45:33;;;;;;;9.23;7.00;;;;;;;20.60;53.34;101624.19;5025909;28;20053;-34
2023/05/15 03:48:00;;;;;;;8.63;6.35;;;;;;;20.60;53.35;101616.13;5024985;28;20058;-34
2023/05/15 03:50:27;;;;;;;10.07;7.03;;;;;;;20.61;53.16;101619.66;5026796;28;20057;-34
2023/05/15 03:52:53;;;;;;;9.52;6.55;;;;;;;20.60;53.66;101629.59;5023741;28;20049;-34
2023/05/15 03:55:20;;;;;;;9.57;6.90;;;;;;;20.60;52.96;101624.19;5023391;28;20144;-34
2023/05/15 03:57:47;;;;;;;7.55;5.82;;;;;;;20.60;53.03;101634.97;5023154;28;20053;-33
2023/05/15 04:00:13;;;;;;;7.97;6.15;;;;;;;20.60;52.84;101626.88;5019443;28;20041;-35
2023/05/15 04:02:43;;;;;;;8.38;6.00;;;;;;;20.60;53.29;101636.81;5020836;28;20061;-34
2023/05/15 04:05:09;;;;;;;7.55;5.60;;;;;;;20.60;53.49;101640.34;5020925;28;21419;-34
2023/05/15 04:07:36;;;;;;;8.55;5.88;;;;;;;20.60;52.99;101640.34;5020168;28;20107;-34
2023/05/15 04:10:06;;;;;;;8.35;5.43;;;;;;;20.60;53.66;101643.06;5020351;28;20052;-34
2023/05/15 04:12:36;;;;;;;7.25;5.80;;;;;;;20.59;53.07;101638.66;5020535;28;20049;-34
2023/05/15 04:15:21;;;;;;;7.25;5.50;;;;;;;20.60;53.06;101636.81;5021568;28;20456;-34
2023/05/15 04:17:50;;;;;;;7.65;5.78;;;;;;;20.60;53.20;101645.75;5026755;28;20081;-34
2023/05/15 04:20:19;;;;;;;7.15;5.18;;;;;;;20.59;53.39;101644.06;5025239;28;20048;-34
2023/05/15 04:22:46;;;;;;;7.10;5.05;;;;;;;20.59;53.15;101641.38;5022699;28;20055;-34
2023/05/15 04:25:14;;;;;;;7.68;5.28;;;;;;;20.59;52.85;101641.38;5023247;28;20512;-34
2023/05/15 04:27:42;;;;;;;8.43;5.90;;;;;;;20.58;53.32;101642.38;5027954;28;20138;-34
2023/05/15 04:30:10;;;;;;;6.95;5.03;;;;;;;20.59;53.45;101643.22;5017376;28;20229;-34
2023/05/15 04:32:38;;;;;;;7.93;6.00;;;;;;;20.58;52.94;101646.88;5024955;28;20052;-34
2023/05/15 04:35:10;;;;;;;7.32;5.22;;;;;;;20.57;53.08;101643.34;5020746;28;20054;-34
2023/05/15 04:37:41;;;;;;;7.13;5.28;;;;;;;20.58;53.07;101646.88;5023002;28;20084;-34
2023/05/15 04:40:08;;;;;;;7.88;5.10;;;;;;;20.58;53.13;101638.81;5019043;28;20054;-35
2023/05/15 04:42:36;;;;;;;9.18;5.75;;;;;;;20.58;53.51;101644.19;5021172;28;20077;-34
2023/05/15 04:45:05;;;;;;;6.70;5.15;;;;;;;20.57;52.99;101637.13;5026104;28;20123;-34
2023/05/15 04:47:32;;;;;;;5.97;4.68;;;;;;;20.56;53.27;101630.88;5022278;28;20064;-34
2023/05/15 04:49:59;;;;;;;9.52;5.68;;;;;;;20.55;52.94;101631.91;5022954;28;20045;-34
2023/05/15 04:52:26;;;;;;;6.85;5.45;;;;;;;20.57;53.50;101640.66;5024253;28;20525;-34
2023/05/15 04:54:54;;;;;;;7.63;5.45;;;;;;;20.57;52.89;101640.66;5017883;28;20057;-34
2023/05/15 04:57:21;;;;;;;9.65;5.95;;;;;;;20.57;52.93;101640.66;5022827;28;20510;-34
2023/05/15 04:59:48;;;;;;;7.05;5.30;;;;;;;20.58;53.33;101641.50;5024712;28;20049;-34
2023/05/15 05:02:15;;;;;;;8.30;5.95;;;;;;;20.58;53.07;101645.06;5027436;28;20434;-34
2023/05/15 05:04:43;;;;;;;6.95;5.20;;;;;;;20.58;52.89;101638.81;5019055;28;20357;-33
2023/05/15 05:07:09;;;;;;;7.35;5.50;;;;;;;20.58;53.50;101642.38;5019915;28;20718;-34
2023/05/15 05:09:38;;;;;;;6.93;5.63;;;;;;;20.58;53.42;101647.75;5025599;28;20164;-33
2023/05/15 05:12:06;;;;;;;9.10;5.90;;;;;;;20.58;52.84;101647.75;5023082;28;20136;-33
2023/05/15 05:14:33;;;;;;;8.18;5.95;;;;;;;20.59;53.07;101645.91;5023653;28;20077;-33
2023/05/15 05:17:00;;;;;;;9.25;5.20;;;;;;;20.60;52.89;101650.28;5023480;28;20063;-33
2023/05/15 05:19:29;;;;;;;7.68;5.88;;;;;;;20.59;53.13;101648.59;5025352;28;20048;-34
2023/05/15 05:21:57;;;;;;;8.38;5.97;;;;;;;20.60;52.86;101656.50;5025399;28;20046;-34
2023/05/15 05:24:24;;;;;;;8.27;5.93;;;;;;;20.60;53.21;101647.59;5023300;28;20053;-33
2023/05/15 05:26:50;;;;;;;7.65;5.80;;;;;;;20.61;53.41;101647.44;5025746;28;20054;-33
2023/05/15 05:29:17;;;;;;;7.82;5.75;;;;;;;20.62;52.75;101645.56;5019927;28;20164;-34
2023/05/15 05:31:45;;;;;;;6.88;5.18;;;;;;;20.63;53.18;101648.16;5021561;28;20326;-34
2023/05/15 05:34:12;;;;;;;7.05;5.32;;;;;;;20.63;53.04;101642.75;5021574;28;20049;-33
2023/05/15 05:36:38;;;;;;;7.93;5.82;;;;;;;20.64;53.31;101647.13;5025370;28;20049;-34
2023/05/15 05:39:05;;;;;;;6.68;5.25;;;;;;;20.66;53.28;101645.16;5023300;28;20140;-33
2023/05/15 05:41:31;;;;;;;7.40;5.53;;;;;;;20.67;52.56;101638.75;5023124;28;20438;-34
2023/05/15 05:43:58;;;;;;;7.75;5.22;;;;;;;20.69;52.59;101649.38;5020624;28;20398;-34
2023/05/15 05:46:26;;;;;;;8.38;5.63;;;;;;;20.69;52.66;101639.44;5017511;28;20533;-34
2023/05/15 05:48:52;;;;;;;8.18;5.53;;;;;;;20.71;53.20;101642.00;5022490;28;20057;-34
2023/05/15 05:51:19;;;;;;;7.53;5.60;;;;;;;20.73;52.64;101641.84;5024230;28;20060;-33
2023/05/15 05:53:46;;;;;;;8.02;5.70;;;;;;;20.74;52.51;101640.84;5022940;28;20049;-33
2023/05/15 05:56:12;;;;;;;8.95;5.43;;;;;;;20.74;52.83;101640.84;5019574;28;20328;-34
2023/05/15 05:58:39;;;;;;;8.07;6.20;;;;;;;20.75;52.76;101629.06;5022363;28;20401;-34
2023/05/15 06:01:05;;;;;;;7.10;5.65;;;;;;;20.75;52.29;101621.84;5023394;28;20050;-34
2023/05/15 06:03:33;;;;;;;7.40;5.38;;;;;;;20.76;52.74;101626.22;5023898;28;20069;-33
2023/05/15 06:05:59;;;;;;;6.88;5.40;;;;;;;20.76;52.36;101628.91;5004084;28;20057;-34
2023/05/15 06:08:28;;;;;;;6.97;5.13;;;;;;;20.77;52.52;101619.81;5024546;28;20058;-34
2023/05/15 06:10:54;;;;;;;6.97;5.60;;;;;;;20.79;52.51;101625.06;5022424;28;20142;-34
2023/05/15 06:13:21;;;;;;;8.35;5.57;;;;;;;20.79;52.61;101633.16;5022477;28;20045;-34
2023/05/15 06:15:49;;;;;;;8.85;5.82;;;;;;;20.79;52.37;101625.91;5022119;28;20059;-34
2023/05/15 06:18:16;;;;;;;7.63;5.55;;;;;;;20.79;52.27;101625.91;5025484;28;20060;-34
2023/05/15 06:20:42;;;;;;;7.43;5.57;;;;;;;20.79;52.60;101639.38;5021819;28;20048;-34
2023/05/15 06:23:09;;;;;;;7.38;5.63;;;;;;;20.79;52.28;101634.00;5023995;28;20405;-34
2023/05/15 06:25:35;;;;;;;7.68;5.53;;;;;;;20.79;52.36;101631.31;5026561;28;20507;-34
2023/05/15 06:28:02;;;;;;;7.05;5.65;;;;;;;20.81;52.05;101631.16;5022428;28;20060;-33
2023/05/15 06:30:29;;;;;;;10.52;5.35;;;;;;;20.81;52.40;101625.75;5024477;28;20053;-34
2023/05/15 06:32:55;;;;;;;8.02;5.68;;;;;;;20.81;52.35;101625.75;5029193;28;20053;-34
2023/05/15 06:35:25;;;;;;;9.30;5.80;;;;;;;20.82;52.40;101622.91;5025885;28;20399;-34
2023/05/15 06:37:52;;;;;;;8.50;5.60;;;;;;;20.83;52.15;101631.84;5030969;28;20051;-34
2023/05/15 06:40:19;;;;;;;10.85;5.65;;;;;;;20.84;52.18;101631.69;5025237;28;20140;-34
2023/05/15 06:42:46;;;;;;;7.32;5.38;;;;;;;20.86;52.50;101634.22;5024942;28;20100;-34
2023/05/15 06:45:13;;;;;;;6.78;5.07;;;;;;;20.86;52.62;101634.22;5023001;28;20046;-34
2023/05/15 06:47:39;;;;;;;7.28;4.95;;;;;;;20.87;52.54;101627.84;5027914;28;20065;-34
2023/05/15 06:50:06;;;;;;;6.45;5.05;;;;;;;20.89;52.60;101625.84;5030412;28;20042;-35
2023/05/15 06:52:33;;;;;;;8.10;5.63;;;;;;;20.90;52.34;101622.13;5027966;28;20440;-34
2023/05/15 06:55:00;;;;;;;9.50;6.15;;;;;;;20.91;52.79;101627.38;5024547;28;20390;-34
2023/05/15 06:57:26;;;;;;;7.75;5.28;;;;;;;20.92;52.42;101612.06;5026153;28;20042;-34
2023/05/15 06:59:53;;;;;;;7.68;5.55;;;;;;;20.93;52.38;101616.44;5025971;28;20054;-34
2023/05/15 07:02:19;;;;;;;8.05;5.60;;;;;;;20.95;52.44;101622.53;5024712;28;20429;-34
2023/05/15 07:04:46;;;;;;;9.35;5.68;;;;;;;20.95;51.99;101614.47;5026510;28;20061;-34
2023/05/15 07:07:13;;;;;;;7.28;5.45;;;;;;;20.96;52.16;101616.13;5026440;28;20057;-36
2023/05/15 07:09:40;;;;;;;7.28;5.50;;;;;;;20.98;52.39;101621.38;5023894;28;20100;-34
2023/05/15 07:12:06;;;;;;;7.93;5.40;;;;;;;20.99;52.31;101613.16;5026650;28;20045;-34
2023/05/15 07:14:33;;;;;;;7.88;5.68;;;;;;;21.00;51.85;101616.69;5023903;28;20052;-34
2023/05/15 07:17:00;;;;;;;7.50;5.68;;;;;;;21.00;51.84;101612.13;5022354;28;20065;-34
2023/05/15 07:19:26;;;;;;;6.38;5.15;;;;;;;21.01;51.79;101616.53;5022536;28;20459;-34
2023/05/15 07:21:53;;;;;;;7.20;5.43;;;;;;;21.02;51.90;101615.50;5024445;28;20168;-34
2023/05/15 07:24:19;;;;;;;7.18;5.65;;;;;;;21.02;51.96;101606.56;5023771;28;20059;-34
2023/05/15 07:26:46;;;;;;;8.80;5.28;;;;;;;21.03;51.84;101611.00;5026387;28;20069;-34
2023/05/15 07:29:24;;;;;;;6.35;4.85;;;;;;;21.03;51.86;101611.00;5025867;28;20168;-34
2023/05/15 07:31:51;;;;;;;8.25;5.57;;;;;;;21.03;52.11;101619.09;5024385;28;20041;-33
2023/05/15 07:34:17;;;;;;;7.63;5.22;;;;;;;21.03;51.72;101611.84;5023035;28;20061;-34
2023/05/15 07:36:44;;;;;;;8.40;4.75;;;;;;;21.05;52.08;101611.66;5025817;28;20092;-34
2023/05/15 07:39:11;;;;;;;9.30;5.60;;;;;;;21.05;52.06;101617.91;5024624;28;20128;-34
2023/05/15 07:41:37;;;;;;;6.68;4.95;;;;;;;21.05;52.07;101617.91;5026984;28;20111;-34
2023/05/15 07:44:04;;;;;;;7.38;5.20;;;;;;;21.06;52.06;101618.75;5023107;28;20406;-34
2023/05/15 07:46:32;;;;;;;8.40;5.57;;;;;;;21.06;51.91;101624.97;5021866;28;20082;-34
2023/05/15 07:48:58;;;;;;;9.57;5.25;;;;;;;21.09;51.66;101626.53;5023370;28;20104;-35
2023/05/15 07:51:25;;;;;;;6.35;4.72;;;;;;;21.09;51.95;101626.53;5022492;28;20046;-34
2023/05/15 07:53:51;;;;;;;7.93;5.50;;;;;;;21.10;51.65;101633.59;5027074;28;20302;-35
2023/05/15 07:56:18;;;;;;;8.13;5.70;;;;;;;21.11;51.82;101633.47;5023001;28;20445;-34
2023/05/15 07:58:45;;;;;;;7.93;5.15;;;;;;;21.12;52.00;101639.72;5023809;28;20444;-34
2023/05/15 08:01:11;;;;;;;6.22;4.78;;;;;;;21.13;51.85;101644.94;5021826;28;20421;-34
2023/05/15 08:03:38;;;;;;;9.05;5.95;;;;;;;21.13;51.39;101633.31;5025177;28;20449;-35
2023/05/15 08:06:06;;;;;;;8.85;5.47;;;;;;;21.13;51.67;101638.69;5023139;28;20447;-34
2023/05/15 08:08:33;;;;;;;9.52;6.05;;;;;;;21.13;51.71;101642.25;5028212;28;20144;-34
2023/05/15 08:10:59;;;;;;;8.23;5.38;;;;;;;21.14;51.59;101640.38;5025760;28;20064;-35
2023/05/15 08:13:27;;;;;;;7.22;5.65;;;;;;;21.13;51.72;101636.84;5022033;28;20136;-34
2023/05/15 08:15:54;;;;;;;10.80;5.70;;;;;;;21.14;51.73;101643.09;5025594;28;20153;-34
2023/05/15 08:18:20;;;;;;;7.45;5.25;;;;;;;21.13;51.71;101636.84;5025912;28;20389;-34
2023/05/15 08:20:47;;;;;;;13.55;5.50;;;;;;;21.13;51.82;101633.31;5025927;28;20129;-34
2023/05/15 08:23:14;;;;;;;7.85;4.95;;;;;;;21.13;51.63;101636.00;5024742;28;20049;-34
2023/05/15 08:25:40;;;;;;;9.50;5.30;;;;;;;21.13;51.43;101636.00;5023446;28;20057;-34
2023/05/15 08:28:07;;;;;;;7.95;5.22;;;;;;;21.13;51.64;101639.53;5021934;28;20041;-34
2023/05/15 08:30:34;;;;;;;7.97;5.13;;;;;;;21.12;51.66;101637.84;5023518;28;20042;-34
2023/05/15 08:33:01;;;;;;;8.10;5.05;;;;;;;21.12;51.75;101635.16;5024691;28;20132;-33
2023/05/15 08:35:28;;;;;;;9.10;5.03;;;;;;;21.12;51.28;101637.84;5024817;28;20429;-34
2023/05/15 08:37:54;;;;;;;8.05;4.85;;;;;;;21.11;51.43;101632.63;5024390;28;20136;-35
2023/05/15 08:40:21;;;;;;;7.82;5.22;;;;;;;21.11;51.63;101640.72;5020769;28;20202;-35
2023/05/15 08:43:13;;;;;;;6.90;4.80;;;;;;;21.11;51.60;101638.03;5019502;28;20137;-35
2023/05/15 08:45:40;;;;;;;7.43;5.20;;;;;;;21.10;51.82;101636.31;5025642;28;20062;-35
2023/05/15 08:48:14;;;;;;;8.07;5.00;;;;;;;21.08;51.47;101639.16;5019660;28;20068;-35
2023/05/15 08:50:43;;;;;;;5.72;4.28;;;;;;;21.08;51.71;101644.56;5024706;28;20045;-35
2023/05/15 08:53:11;;;;;;;7.47;4.97;;;;;;;21.08;51.40;101641.03;5023858;28;20049;-35
2023/05/15 08:55:38;;;;;;;7.63;5.15;;;;;;;21.06;51.49;101635.75;5018179;28;20064;-35
2023/05/15 08:58:06;;;;;;;8.05;4.90;;;;;;;21.05;51.63;101647.56;5024590;28;20512;-35
2023/05/15 09:00:33;;;;;;;8.05;5.45;;;;;;;21.05;51.87;101636.78;5021443;28;20063;-35
2023/05/15 09:03:00;;;;;;;8.00;4.70;;;;;;;21.04;51.45;101645.88;5021873;28;20406;-34
2023/05/15 09:05:28;;;;;;;8.95;5.55;;;;;;;21.05;51.99;101638.63;5017130;28;20129;-35
2023/05/15 09:07:55;;;;;;;6.72;5.13;;;;;;;21.04;51.62;101637.78;5019143;28;20096;-35
2023/05/15 09:10:23;;;;;;;8.25;5.28;;;;;;;21.04;51.70;101650.41;5021516;28;20133;-35
2023/05/15 09:12:51;;;;;;;7.05;5.07;;;;;;;21.03;51.94;101646.88;5021773;28;20053;-35
2023/05/15 09:15:22;;;;;;;6.55;4.63;;;;;;;21.02;51.70;101658.63;5019075;28;20049;-35
2023/05/15 09:17:49;;;;;;;8.88;5.50;;;;;;;21.02;51.88;101658.63;5018126;28;20060;-35
2023/05/15 09:20:30;;;;;;;6.60;4.93;;;;;;;21.01;51.79;101658.81;5013854;28;20404;-35
2023/05/15 09:22:59;;;;;;;6.47;4.57;;;;;;;21.01;51.73;101658.81;5024255;28;20046;-35
2023/05/15 09:25:32;;;;;;;8.02;4.95;;;;;;;21.00;51.68;101651.72;5022118;28;20048;-34
2023/05/15 09:27:59;;;;;;;6.25;4.70;;;;;;;21.00;51.77;101657.97;5025950;28;20173;-34
2023/05/15 09:30:26;;;;;;;6.45;4.72;;;;;;;21.00;51.90;101657.13;5021829;28;20057;-35
2023/05/15 09:32:55;;;;;;;5.50;4.60;;;;;;;20.99;52.12;101647.34;5024142;28;20165;-35
2023/05/15 09:35:30;;;;;;;10.43;5.70;;;;;;;20.99;51.72;101655.44;5024516;28;20053;-36
2023/05/15 09:38:01;;;;;;;7.15;4.78;;;;;;;20.98;51.91;101651.84;5023805;28;20144;-35
2023/05/15 09:40:30;;;;;;;6.78;4.78;;;;;;;20.98;52.09;101651.84;5025961;28;20046;-35
2023/05/15 09:42:57;;;;;;;8.25;5.00;;;;;;;20.98;51.45;101657.25;5023317;28;20139;-35
2023/05/15 09:45:25;;;;;;;5.22;4.22;;;;;;;20.97;51.67;101660.94;5022371;28;20056;-35
2023/05/15 09:47:54;;;;;;;7.28;4.60;;;;;;;20.99;51.88;101656.28;5014499;28;20170;-35
2023/05/15 09:50:23;;;;;;;7.10;4.75;;;;;;;20.97;52.07;101658.25;5022369;28;20053;-35
2023/05/15 09:52:50;;;;;;;8.40;5.43;;;;;;;20.97;51.81;101655.56;5030104;28;20057;-36
2023/05/15 09:55:21;;;;;;;5.93;4.28;;;;;;;20.97;51.95;101663.66;5022960;28;20437;-35
2023/05/15 09:58:14;;;;;;;6.95;4.90;;;;;;;20.97;52.04;101657.41;5024000;28;20057;-35
2023/05/15 10:00:42;;;;;;;7.10;4.40;;;;;;;20.98;51.86;101664.50;5023616;28;20145;-35
2023/05/15 10:03:17;;;;;;;6.93;4.57;;;;;;;20.97;51.68;101660.94;5023941;28;20060;-35
2023/05/15 10:05:44;;;;;;;5.90;4.45;;;;;;;20.97;51.97;101663.66;5025803;28;20129;-35
2023/05/15 10:08:11;;;;;;;6.65;4.88;;;;;;;20.97;52.00;101662.81;5027987;28;20440;-35
2023/05/15 10:10:38;;;;;;;6.28;4.45;;;;;;;20.95;51.56;101660.28;5025599;28;20353;-36
2023/05/15 10:13:06;;;;;;;7.55;4.32;;;;;;;20.95;51.73;101655.72;5027789;28;20045;-35
2023/05/15 10:15:34;;;;;;;8.95;5.10;;;;;;;20.95;51.73;101665.66;5025579;28;20391;-35
2023/05/15 10:18:03;;;;;;;6.43;4.63;;;;;;;20.95;51.75;101654.88;5025777;28;20061;-35
2023/05/15 10:20:32;;;;;;;6.45;4.80;;;;;;;20.95;51.70;101660.28;5022632;28;20072;-35
2023/05/15 10:23:01;;;;;;;5.60;4.10;;;;;;;20.95;51.58;101654.88;5023246;28;20054;-34
2023/05/15 10:25:46;;;;;;;8.05;5.38;;;;;;;20.95;51.94;101657.56;5021669;28;20056;-35
2023/05/15 10:28:14;;;;;;;7.20;4.72;;;;;;;20.96;51.79;101661.97;5023587;28;20309;-34
2023/05/15 10:30:41;;;;;;;5.15;4.07;;;;;;;20.96;52.01;101661.97;5026053;28;20053;-35
2023/05/15 10:33:10;;;;;;;6.50;4.80;;;;;;;20.96;52.08;101651.19;5020392;28;20057;-34
2023/05/15 10:35:38;;;;;;;7.35;5.07;;;;;;;20.95;51.87;101655.72;5029194;28;20057;-35
2023/05/15 10:38:05;;;;;;;9.00;5.07;;;;;;;20.97;51.69;101658.25;5027126;28;20049;-34
2023/05/15 10:40:36;;;;;;;6.53;4.45;;;;;;;20.97;51.81;101652.88;5027895;28;20050;-34
2023/05/15 10:43:03;;;;;;;7.32;5.43;;;;;;;20.97;51.54;101652.88;5024559;28;20357;-34
2023/05/15 10:45:32;;;;;;;6.75;4.35;;;;;;;20.98;51.76;101654.56;5029041;28;20132;-35
2023/05/15 10:47:59;;;;;;;6.00;4.20;;;;;;;20.98;51.87;101646.47;5020896;28;20156;-35
2023/05/15 10:50:26;;;;;;;5.90;4.57;;;;;;;20.99;51.43;101650.88;5022740;28;20593;-33
2023/05/15 10:52:54;;;;;;;5.40;3.80;;;;;;;21.00;51.62;101651.72;5022154;28;20057;-33
2023/05/15 10:55:21;;;;;;;5.63;4.15;;;;;;;20.99;51.77;101650.03;5024437;28;20134;-33
2023/05/15 10:57:48;;;;;;;7.55;5.28;;;;;;;20.99;51.84;101641.94;5027703;28;20053;-34
2023/05/15 11:00:21;;;;;;;6.45;4.35;;;;;;;20.99;51.74;101650.88;5024058;28;20139;-33
2023/05/15 11:02:48;;;;;;;6.13;4.38;;;;;;;21.00;51.90;101651.72;5025840;28;20068;-33
2023/05/15 11:05:15;;;;;;;7.40;4.95;;;;;;;21.01;51.99;101648.88;5029601;28;20070;-33
2023/05/15 11:07:41;;;;;;;5.80;4.75;;;;;;;21.03;51.67;101651.41;5028618;28;20136;-34
2023/05/15 11:10:38;;;;;;;9.10;5.07;;;;;;;21.03;52.21;101651.41;5024734;28;20059;-34
2023/05/15 11:13:05;;;;;;;8.68;5.53;;;;;;;21.07;51.54;101642.03;5015748;28;20049;-34
2023/05/15 11:15:45;;;;;;;9.98;5.20;;;;;;;21.07;51.46;101642.03;5025791;28;20056;-33
2023/05/15 11:18:12;;;;;;;10.05;5.75;;;;;;;21.08;51.91;101652.66;5022527;28;20056;-34
2023/05/15 11:20:41;;;;;;;10.10;6.82;;;;;;;21.09;51.49;101640.84;5025964;28;20060;-33
2023/05/15 11:23:08;;;;;;;9.52;6.38;;;;;;;21.11;51.50;101638.88;5026633;28;20037;-34
2023/05/15 11:25:35;;;;;;;12.68;7.00;;;;;;;21.13;51.96;101641.41;5025488;28;20049;-34
2023/05/15 11:28:03;;;;;;;11.43;6.97;;;;;;;21.16;51.76;101635.69;5022276;28;20142;-33